Time;durP1;ratioP1;P1;durP2;ratioP2;P2;SDS_P1;SDS_P2;PMS_P1;PMS_P2;Temp;Humidity;BMP_temperature;BMP_pressure;BME280_temperature;BME280_humidity;BME280_pressure;Samples;Min_cycle;Max_cycle;Signal;HPM_P1;HPM_P2
2023/05/24 00:03:47;;;;;;;13.60;4.50;;;;;;;7.58;86.35;102499.78;10276287;28;20035;-73
2023/05/24 00:08:48;;;;;;;15.27;4.38;;;;;;;7.60;85.86;102495.97;10298230;28;20054;-73
2023/05/24 00:13:48;;;;;;;10.40;5.22;;;;;;;7.53;85.74;102493.94;10293514;28;20042;-71
2023/05/24 00:18:49;;;;;;;11.85;5.00;;;;;;;7.51;86.53;102483.31;10275748;28;20035;-71
2023/05/24 00:23:50;;;;;;;8.93;4.55;;;;;;;7.53;87.08;102480.47;10259788;28;20456;-72
2023/05/24 00:28:51;;;;;;;8.90;4.38;;;;;;;7.49;86.71;102477.22;10292921;28;20545;-73
2023/05/24 00:33:51;;;;;;;13.82;5.90;;;;;;;7.35;87.14;102474.91;10277091;28;20106;-72
2023/05/24 00:38:52;;;;;;;22.25;6.38;;;;;;;7.35;87.47;102481.16;10276627;28;20074;-72
2023/05/24 00:43:52;;;;;;;8.63;3.92;;;;;;;7.28;87.49;102482.69;10298126;28;20397;-72
2023/05/24 00:48:53;;;;;;;15.48;6.38;;;;;;;7.27;88.02;102480.13;10300894;28;20050;-72
2023/05/24 00:53:53;;;;;;;22.02;6.20;;;;;;;7.26;87.88;102481.97;10283172;28;20401;-72
2023/05/24 00:58:54;;;;;;;10.35;4.40;;;;;;;7.19;88.19;102478.13;10282434;28;20043;-72
2023/05/24 01:03:56;;;;;;;13.00;5.45;;;;;;;7.15;88.56;102474.84;10269410;28;20037;-72
2023/05/24 01:09:16;;;;;;;21.45;6.07;;;;;;;7.14;88.37;102467.75;10308070;28;20062;-72
2023/05/24 01:14:21;;;;;;;11.05;5.10;;;;;;;7.10;88.37;102468.16;10270137;28;20077;-72
2023/05/24 01:19:48;;;;;;;12.00;5.05;;;;;;;7.09;88.89;102478.09;10288820;28;20091;-72
2023/05/24 01:24:54;;;;;;;10.68;6.07;;;;;;;7.06;89.45;102472.13;10300927;28;20039;-73
2023/05/24 01:29:55;;;;;;;15.30;6.07;;;;;;;7.04;89.84;102477.63;10281217;28;20085;-73
2023/05/24 01:34:55;;;;;;;12.95;4.65;;;;;;;7.04;90.04;102483.03;10266290;28;20037;-74
2023/05/24 01:39:56;;;;;;;11.35;4.78;;;;;;;7.02;90.42;102484.16;10281037;28;20048;-74
2023/05/24 01:45:16;;;;;;;20.88;6.47;;;;;;;7.01;90.13;102477.91;10265415;28;20058;-74
2023/05/24 01:50:55;;;;;;;10.13;4.90;;;;;;;6.97;90.48;102468.41;10284290;28;20070;-74
2023/05/24 01:55:56;;;;;;;15.60;5.50;;;;;;;6.96;90.87;102461.31;10249435;28;20050;-75
2023/05/24 02:00:56;;;;;;;6.55;4.03;;;;;;;6.98;91.06;102464.72;10281535;28;20422;-74
2023/05/24 02:05:56;;;;;;;20.38;7.35;;;;;;;6.99;91.31;102466.44;10281163;28;20489;-74
2023/05/24 02:10:57;;;;;;;10.57;5.22;;;;;;;6.96;91.33;102464.88;10280685;28;20096;-74
2023/05/24 02:15:57;;;;;;;8.50;6.18;;;;;;;6.99;91.92;102469.97;10298435;28;20121;-74
2023/05/24 02:20:58;;;;;;;12.23;5.97;;;;;;;7.01;92.00;102467.13;10297730;28;20031;-74
2023/05/24 02:25:58;;;;;;;14.93;5.50;;;;;;;7.08;92.43;102456.66;10297528;28;20089;-74
2023/05/24 02:30:58;;;;;;;33.30;6.07;;;;;;;7.09;92.75;102458.38;10296228;28;20031;-74
2023/05/24 02:35:59;;;;;;;11.90;5.75;;;;;;;7.04;93.04;102460.63;10280064;28;20038;-74
2023/05/24 02:40:59;;;;;;;13.25;5.68;;;;;;;7.04;92.86;102460.63;10297470;28;20594;-73
2023/05/24 02:45:59;;;;;;;17.00;6.85;;;;;;;7.02;93.17;102460.78;10296265;28;20049;-74
2023/05/24 02:51:02;;;;;;;15.50;6.97;;;;;;;7.04;92.75;102466.00;10296094;28;20086;-74
2023/05/24 02:56:02;;;;;;;19.60;5.60;;;;;;;7.01;93.06;102467.13;10297075;28;20466;-74
2023/05/24 03:01:03;;;;;;;27.95;6.53;;;;;;;7.03;93.65;102467.00;10295210;28;20042;-74
2023/05/24 03:06:03;;;;;;;16.70;5.50;;;;;;;7.06;93.98;102448.75;10261892;28;20037;-74
2023/05/24 03:11:04;;;;;;;11.65;5.60;;;;;;;7.08;94.25;102459.34;10296619;28;20051;-74
2023/05/24 03:16:05;;;;;;;16.60;7.05;;;;;;;7.27;96.00;102445.94;10295818;28;20122;-74
2023/05/24 03:21:06;;;;;;;14.57;6.13;;;;;;;7.51;96.01;102447.44;10277549;28;20038;-74
2023/05/24 03:26:06;;;;;;;21.55;6.32;;;;;;;7.64;96.25;102442.63;10277573;28;20504;-73
2023/05/24 03:31:07;;;;;;;9.02;6.05;;;;;;;7.76;96.45;102446.03;10294551;28;20038;-74
2023/05/24 03:36:07;;;;;;;13.55;6.45;;;;;;;7.91;97.02;102433.81;10278198;28;20062;-73
2023/05/24 03:41:08;;;;;;;13.50;7.18;;;;;;;8.02;96.22;102436.38;10277100;28;20038;-74
2023/05/24 03:46:08;;;;;;;9.85;5.60;;;;;;;7.96;95.38;102433.41;10295352;28;20046;-75
2023/05/24 03:51:08;;;;;;;17.77;6.05;;;;;;;7.86;95.13;102441.50;10293644;28;20039;-74
2023/05/24 03:56:09;;;;;;;21.35;7.35;;;;;;;7.83;95.44;102436.41;10276571;28;20116;-74
2023/05/24 04:01:10;;;;;;;15.75;5.70;;;;;;;7.89;96.39;102450.16;10293869;28;20147;-74
2023/05/24 04:06:11;;;;;;;20.67;8.52;;;;;;;8.15;98.23;102447.72;10287735;28;20035;-74
2023/05/24 04:11:12;;;;;;;15.38;8.70;;;;;;;8.47;98.78;102440.31;10307859;28;20050;-74
2023/05/24 04:16:12;;;;;;;18.67;7.43;;;;;;;8.75;99.02;102455.59;10283213;28;20046;-74
2023/05/24 04:21:13;;;;;;;17.20;6.43;;;;;;;9.01;98.99;102465.72;10301064;28;20113;-75
2023/05/24 04:26:14;;;;;;;14.90;6.55;;;;;;;9.27;99.45;102455.91;10288442;28;20034;-74
2023/05/24 04:31:15;;;;;;;23.08;7.65;;;;;;;9.54;100.00;102449.66;10276699;28;20089;-74
2023/05/24 04:36:16;;;;;;;14.85;6.10;;;;;;;9.82;100.00;102446.84;10293110;28;20031;-74
2023/05/24 04:41:16;;;;;;;19.85;5.68;;;;;;;10.03;100.00;102457.38;10293243;28;20450;-73
2023/05/24 04:46:17;;;;;;;11.60;6.60;;;;;;;10.34;100.00;102465.09;10277174;28;20039;-74
2023/05/24 04:51:17;;;;;;;16.75;6.38;;;;;;;10.76;100.00;102458.97;10275404;28;20039;-73
2023/05/24 04:56:18;;;;;;;30.67;6.57;;;;;;;11.70;100.00;102455.25;10292221;28;20031;-73
2023/05/24 05:01:19;;;;;;;22.05;7.63;;;;;;;12.56;100.00;102443.88;10293607;28;20027;-74
2023/05/24 05:06:19;;;;;;;15.23;5.65;;;;;;;13.13;100.00;102435.56;10260545;28;20035;-75
2023/05/24 05:11:20;;;;;;;9.48;4.13;;;;;;;13.48;100.00;102442.38;10292982;28;20061;-75
2023/05/24 05:16:20;;;;;;;16.17;4.97;;;;;;;13.50;100.00;102442.22;10276141;28;20135;-75
2023/05/24 05:21:21;;;;;;;10.13;4.35;;;;;;;13.47;100.00;102439.84;10293774;28;20030;-74
2023/05/24 05:26:21;;;;;;;10.48;4.15;;;;;;;13.32;100.00;102455.22;10293043;28;20037;-74
2023/05/24 05:31:22;;;;;;;15.43;5.05;;;;;;;12.87;100.00;102449.44;10298966;28;20034;-72
2023/05/24 05:36:22;;;;;;;9.38;3.17;;;;;;;12.80;100.00;102454.72;10266961;28;20082;-73
2023/05/24 05:41:22;;;;;;;15.85;3.22;;;;;;;12.91;100.00;102455.34;10299276;28;20034;-73
2023/05/24 05:46:23;;;;;;;11.75;4.15;;;;;;;12.76;100.00;102466.97;10281979;28;20450;-73
2023/05/24 05:51:23;;;;;;;11.25;3.90;;;;;;;12.74;100.00;102462.72;10297352;28;20038;-73
2023/05/24 05:56:24;;;;;;;12.95;5.20;;;;;;;13.00;100.00;102465.19;10280662;28;20030;-73
2023/05/24 06:01:24;;;;;;;10.50;4.30;;;;;;;12.93;100.00;102462.31;10297866;28;20038;-73
2023/05/24 06:06:24;;;;;;;15.63;5.05;;;;;;;12.94;100.00;102466.72;10281513;28;20038;-73
2023/05/24 06:11:25;;;;;;;17.23;5.65;;;;;;;13.13;100.00;102468.19;10297338;28;20409;-73
2023/05/24 06:16:26;;;;;;;9.93;4.95;;;;;;;13.47;100.00;102467.06;10263994;28;20039;-73
2023/05/24 06:21:28;;;;;;;10.35;4.05;;;;;;;13.63;100.00;102469.69;10311923;28;20125;-73
2023/05/24 06:26:29;;;;;;;13.43;4.22;;;;;;;13.92;100.00;102463.53;10297399;28;20088;-74
2023/05/24 06:31:30;;;;;;;18.08;3.38;;;;;;;14.21;100.00;102472.00;10296906;28;20205;-73
2023/05/24 06:36:40;;;;;;;8.55;3.65;;;;;;;14.23;100.00;102475.38;10296996;28;20038;-73
2023/05/24 06:41:41;;;;;;;7.65;4.32;;;;;;;14.21;99.40;102472.00;10279795;28;20083;-72
2023/05/24 06:46:42;;;;;;;8.77;3.75;;;;;;;14.36;99.13;102462.84;10296340;28;20054;-73
2023/05/24 06:51:42;;;;;;;9.85;4.10;;;;;;;14.53;97.83;102469.00;10296841;28;20386;-74
2023/05/24 06:56:43;;;;;;;13.05;4.25;;;;;;;14.82;97.42;102473.63;10279560;28;20042;-73
2023/05/24 07:01:43;;;;;;;12.38;3.67;;;;;;;15.16;96.71;102474.97;10279599;28;20038;-74
2023/05/24 07:06:44;;;;;;;17.42;3.42;;;;;;;15.60;96.17;102474.03;10278830;28;20038;-73
2023/05/24 07:11:45;;;;;;;8.30;3.28;;;;;;;16.60;91.55;102469.53;10297003;28;20480;-73
2023/05/24 07:16:45;;;;;;;9.88;3.28;;;;;;;17.72;90.14;102465.69;10294215;28;20045;-73
2023/05/24 07:21:45;;;;;;;5.97;3.08;;;;;;;18.16;89.06;102475.31;10277840;28;20034;-74
2023/05/24 07:26:46;;;;;;;20.40;3.42;;;;;;;18.25;86.69;102485.84;10277598;28;20066;-74
2023/05/24 07:31:47;;;;;;;9.20;3.58;;;;;;;18.58;83.70;102479.50;10295713;28;20043;-73
2023/05/24 07:36:48;;;;;;;5.18;2.88;;;;;;;19.05;66.23;102483.06;10294783;28;20038;-74
2023/05/24 07:41:49;;;;;;;4.38;2.95;;;;;;;19.14;74.19;102481.72;10276388;28;20038;-73
2023/05/24 07:46:50;;;;;;;8.10;3.53;;;;;;;19.47;75.21;102476.13;10295039;28;20047;-73
2023/05/24 07:51:50;;;;;;;9.85;3.13;;;;;;;19.66;76.74;102487.28;10294460;28;20133;-74
2023/05/24 07:56:51;;;;;;;8.75;3.22;;;;;;;19.52;77.11;102483.69;10294015;28;20038;-73
2023/05/24 08:01:51;;;;;;;10.93;3.58;;;;;;;19.82;75.16;102480.44;10276742;28;20037;-74
2023/05/24 08:06:53;;;;;;;3.63;2.13;;;;;;;20.83;75.12;102488.50;10294841;28;20042;-74
2023/05/24 08:11:53;;;;;;;3.58;2.67;;;;;;;20.77;71.80;102489.44;10293176;28;20051;-74
2023/05/24 08:16:53;;;;;;;4.75;3.55;;;;;;;20.70;71.76;102488.63;10292771;28;20497;-74
2023/05/24 08:21:55;;;;;;;9.48;3.70;;;;;;;22.50;69.80;102484.38;10292706;28;20035;-74
2023/05/24 08:26:56;;;;;;;6.70;2.78;;;;;;;23.43;63.64;102477.06;10261101;28;20113;-74
2023/05/24 08:31:56;;;;;;;9.18;3.25;;;;;;;23.46;60.09;102482.09;10276225;28;20130;-74
2023/05/24 08:36:56;;;;;;;8.73;3.65;;;;;;;23.87;60.51;102469.09;10275623;28;20039;-74
2023/05/24 08:41:57;;;;;;;5.13;3.47;;;;;;;24.25;58.76;102476.69;10292561;28;20545;-73
2023/05/24 08:46:57;;;;;;;8.77;3.38;;;;;;;24.41;57.95;102477.81;10275572;28;20038;-74
2023/05/24 08:51:58;;;;;;;5.03;2.67;;;;;;;24.33;59.09;102479.03;10259312;28;20035;-74
2023/05/24 08:56:58;;;;;;;9.30;3.53;;;;;;;23.94;57.93;102477.25;10292564;28;20043;-74
2023/05/24 09:01:58;;;;;;;3.90;3.35;;;;;;;24.58;56.68;102475.03;10260264;28;20039;-74
2023/05/24 09:06:59;;;;;;;7.93;3.88;;;;;;;24.76;54.68;102484.97;10268176;28;20419;-74
2023/05/24 09:12:01;;;;;;;3.17;2.10;;;;;;;25.00;53.20;102475.34;10267039;28;20055;-74
2023/05/24 09:17:02;;;;;;;2.75;2.55;;;;;;;25.29;53.66;102469.66;10269009;28;20034;-74
2023/05/24 09:22:02;;;;;;;5.28;2.63;;;;;;;25.43;51.67;102476.50;10268554;28;20050;-73
2023/05/24 09:27:06;;;;;;;8.80;2.80;;;;;;;25.34;50.36;102477.22;10284238;28;20122;-75
2023/05/24 09:32:06;;;;;;;8.30;2.88;;;;;;;24.88;46.23;102471.84;10300156;28;20030;-74
2023/05/24 09:37:15;;;;;;;12.25;3.78;;;;;;;25.10;48.68;102471.03;10299176;28;20038;-74
2023/05/24 09:42:27;;;;;;;8.27;3.70;;;;;;;25.21;48.63;102464.56;10299295;28;20030;-74
2023/05/24 09:47:28;;;;;;;3.88;2.65;;;;;;;24.99;47.65;102462.59;10282299;28;20042;-74
2023/05/24 09:52:29;;;;;;;10.52;4.00;;;;;;;24.37;47.56;102455.28;10297499;28;20038;-74
2023/05/24 09:57:31;;;;;;;3.28;2.80;;;;;;;24.98;47.30;102457.28;10281926;28;20418;-74
2023/05/24 10:02:31;;;;;;;7.05;3.25;;;;;;;25.86;47.37;102446.16;10280688;28;20034;-74
2023/05/24 10:07:32;;;;;;;7.68;3.00;;;;;;;25.90;45.24;102447.31;10281991;28;20490;-74
2023/05/24 10:12:34;;;;;;;4.07;2.83;;;;;;;25.81;44.18;102448.88;10265149;28;20118;-74
2023/05/24 10:17:34;;;;;;;6.05;2.92;;;;;;;25.91;44.75;102432.31;10297656;28;20035;-74
2023/05/24 10:22:36;;;;;;;6.47;3.00;;;;;;;26.27;45.82;102446.53;10298779;28;20062;-74
2023/05/24 10:27:37;;;;;;;8.25;3.05;;;;;;;26.07;44.91;102434.16;10312087;28;20038;-75
2023/05/24 10:32:37;;;;;;;2.92;2.38;;;;;;;26.18;44.49;102451.72;10279787;28;20050;-74
2023/05/24 10:37:38;;;;;;;2.25;1.88;;;;;;;26.61;43.88;102445.13;10279856;28;20050;-74
2023/05/24 10:42:38;;;;;;;9.15;2.67;;;;;;;26.26;43.63;102439.28;10296260;28;20069;-74
2023/05/24 10:47:39;;;;;;;3.08;2.72;;;;;;;26.32;43.02;102438.22;10262858;28;20038;-74
2023/05/24 10:52:40;;;;;;;5.68;2.97;;;;;;;26.39;39.84;102433.28;10297037;28;20038;-74
2023/05/24 10:57:40;;;;;;;4.03;2.75;;;;;;;26.58;42.29;102442.03;10295959;28;20039;-74
2023/05/24 11:02:41;;;;;;;8.75;3.00;;;;;;;26.52;42.40;102437.56;10277667;28;20043;-74
2023/05/24 11:07:41;;;;;;;7.28;3.10;;;;;;;26.79;42.24;102443.00;10261696;28;20054;-74
2023/05/24 11:12:43;;;;;;;6.13;2.80;;;;;;;26.57;42.01;102441.19;10310739;28;20129;-73
2023/05/24 11:18:11;;;;;;;2.88;2.22;;;;;;;25.84;41.02;102442.81;10295142;28;20031;-74
2023/05/24 11:23:13;;;;;;;7.50;3.17;;;;;;;26.04;40.14;102442.16;10294830;28;20496;-74
2023/05/24 11:28:13;;;;;;;15.82;2.40;;;;;;;26.18;38.83;102441.44;10278250;28;20133;-74
2023/05/24 11:33:14;;;;;;;5.07;2.53;;;;;;;26.46;40.96;102442.22;10277459;28;20033;-74
2023/05/24 11:38:15;;;;;;;2.85;2.45;;;;;;;26.66;40.80;102441.53;10295388;28;20039;-75
2023/05/24 11:43:17;;;;;;;2.17;2.08;;;;;;;26.21;39.63;102440.91;10261457;28;20458;-74
2023/05/24 11:48:18;;;;;;;2.75;2.45;;;;;;;26.34;40.46;102433.25;10294066;28;20042;-73
2023/05/24 11:53:19;;;;;;;3.33;2.95;;;;;;;26.33;40.37;102429.63;10295159;28;20418;-75
2023/05/24 11:58:24;;;;;;;6.18;2.42;;;;;;;26.62;40.38;102434.84;10276887;28;20034;-75
2023/05/24 12:03:24;;;;;;;3.25;2.95;;;;;;;26.51;38.47;102420.03;10294132;28;20481;-74
2023/05/24 12:08:25;;;;;;;8.27;3.58;;;;;;;26.36;39.71;102412.44;10293458;28;20177;-74
2023/05/24 12:13:25;;;;;;;10.75;2.95;;;;;;;26.66;39.87;102414.59;10276139;28;20057;-74
2023/05/24 12:18:26;;;;;;;5.70;3.05;;;;;;;26.76;39.14;102415.75;10276097;28;20390;-74
2023/05/24 12:23:28;;;;;;;8.45;3.42;;;;;;;26.79;40.22;102420.75;10276580;28;20378;-74
2023/05/24 12:28:35;;;;;;;3.97;2.92;;;;;;;25.85;39.53;102413.97;10294070;28;20038;-75
2023/05/24 12:33:36;;;;;;;17.25;2.78;;;;;;;26.04;40.98;102419.94;10275768;28;20031;-74
2023/05/24 12:38:36;;;;;;;5.57;3.25;;;;;;;26.98;39.54;102416.41;10297398;28;20508;-74
2023/05/24 12:43:37;;;;;;;3.25;2.30;;;;;;;27.18;39.91;102428.75;10284157;28;20035;-74
2023/05/24 12:48:38;;;;;;;10.50;3.42;;;;;;;26.94;40.35;102431.97;10284186;28;20470;-75
2023/05/24 12:53:38;;;;;;;8.85;4.82;;;;;;;26.88;39.67;102430.25;10301558;28;20113;-75
2023/05/24 12:58:40;;;;;;;4.38;3.30;;;;;;;25.67;39.78;102429.03;10301322;28;20532;-75
2023/05/24 13:03:40;;;;;;;10.02;3.40;;;;;;;24.77;41.03;102423.78;10300165;28;20070;-75
2023/05/24 13:08:41;;;;;;;8.45;3.13;;;;;;;25.49;41.31;102413.56;10299803;28;20051;-73
2023/05/24 13:13:43;;;;;;;2.85;2.22;;;;;;;25.36;42.35;102425.91;10281321;28;20039;-74
2023/05/24 13:18:45;;;;;;;4.20;2.90;;;;;;;25.52;41.61;102418.59;10280265;28;20041;-75
2023/05/24 13:23:45;;;;;;;3.78;2.88;;;;;;;25.79;42.52;102429.69;10296730;28;20030;-75
2023/05/24 13:28:45;;;;;;;5.63;2.45;;;;;;;26.00;41.80;102421.59;10296266;28;20035;-75
2023/05/24 13:33:47;;;;;;;3.45;3.15;;;;;;;25.18;42.68;102429.06;10296620;28;20058;-75
2023/05/24 13:38:48;;;;;;;9.45;3.28;;;;;;;25.44;40.77;102421.84;10280378;28;20089;-74
2023/05/24 13:43:49;;;;;;;5.78;2.70;;;;;;;24.74;40.03;102423.44;10280555;28;20085;-75
2023/05/24 13:48:50;;;;;;;5.32;2.28;;;;;;;24.87;43.03;102420.31;10296027;28;20062;-75
2023/05/24 13:53:50;;;;;;;5.43;3.15;;;;;;;24.67;43.27;102428.34;10296712;28;20070;-75
2023/05/24 13:58:52;;;;;;;8.85;2.88;;;;;;;24.90;43.00;102430.03;10296494;28;20470;-74
2023/05/24 14:03:53;;;;;;;9.63;3.30;;;;;;;24.99;43.16;102423.78;10262286;28;20057;-75
2023/05/24 14:08:53;;;;;;;3.60;2.45;;;;;;;24.06;44.69;102429.03;10241399;28;1088065;-74
2023/05/24 14:13:54;;;;;;;16.13;3.72;;;;;;;23.14;44.13;102420.94;10298408;28;20073;-75
2023/05/24 14:18:54;;;;;;;7.70;3.72;;;;;;;21.86;45.42;102422.53;10297570;28;20031;-74
2023/05/24 14:23:55;;;;;;;5.90;3.00;;;;;;;21.77;44.54;102424.81;10297558;28;20035;-74
2023/05/24 14:28:55;;;;;;;7.93;3.38;;;;;;;22.51;43.60;102422.53;10280071;28;20070;-74
2023/05/24 14:33:55;;;;;;;12.75;3.85;;;;;;;22.57;44.55;102427.09;10297391;28;20066;-75
2023/05/24 14:38:56;;;;;;;7.75;3.17;;;;;;;22.13;45.59;102429.31;10296820;28;20097;-74
2023/05/24 14:43:56;;;;;;;6.22;3.50;;;;;;;21.70;45.71;102426.84;10280111;28;20031;-74
2023/05/24 14:48:57;;;;;;;10.32;3.20;;;;;;;21.29;45.83;102423.78;10279181;28;20378;-75
2023/05/24 14:53:57;;;;;;;7.68;3.17;;;;;;;21.05;46.17;102430.22;10297838;28;20062;-75
2023/05/24 14:58:58;;;;;;;2.40;2.20;;;;;;;20.77;46.61;102430.75;10295393;28;20047;-74
2023/05/24 15:03:58;;;;;;;7.85;3.30;;;;;;;21.18;45.59;102423.69;10296026;28;20122;-74
2023/05/24 15:09:01;;;;;;;7.03;3.38;;;;;;;20.74;45.80;102425.69;10279616;28;20059;-74
2023/05/24 15:14:01;;;;;;;5.97;3.10;;;;;;;19.88;46.40;102443.81;10279353;28;20039;-74
2023/05/24 15:19:02;;;;;;;7.90;3.83;;;;;;;18.88;48.04;102448.88;10295894;28;20502;-75
2023/05/24 15:24:02;;;;;;;11.20;3.58;;;;;;;18.68;48.04;102441.50;10295292;28;20126;-74
2023/05/24 15:29:03;;;;;;;9.60;2.42;;;;;;;18.56;48.29;102443.22;10296055;28;20410;-74
2023/05/24 15:34:04;;;;;;;4.97;2.53;;;;;;;18.41;48.63;102454.44;10296573;28;20069;-74
2023/05/24 15:39:05;;;;;;;5.07;2.20;;;;;;;17.94;49.38;102444.50;10278132;28;20046;-74
2023/05/24 15:44:09;;;;;;;3.83;2.33;;;;;;;17.61;49.43;102445.22;10276575;28;20105;-74
2023/05/24 15:49:09;;;;;;;16.02;4.68;;;;;;;17.18;50.03;102440.84;10295975;28;20156;-74
2023/05/24 15:54:10;;;;;;;11.60;4.65;;;;;;;16.97;50.99;102460.13;10294153;28;20046;-74
2023/05/24 15:59:10;;;;;;;12.13;4.45;;;;;;;16.89;50.60;102457.56;10294015;28;20378;-74
2023/05/24 16:04:11;;;;;;;10.50;3.40;;;;;;;16.93;50.92;102453.38;10276342;28;20031;-74
2023/05/24 16:09:12;;;;;;;5.10;3.33;;;;;;;16.81;52.18;102454.97;10293544;28;20050;-74
2023/05/24 16:14:12;;;;;;;12.15;3.40;;;;;;;16.72;51.46;102446.06;10292902;28;20473;-74
2023/05/24 16:19:13;;;;;;;5.68;2.75;;;;;;;16.43;52.93;102444.38;10276574;28;20043;-74
2023/05/24 16:24:13;;;;;;;8.43;2.92;;;;;;;16.34;52.78;102453.78;10293653;28;20085;-74
2023/05/24 16:29:15;;;;;;;4.88;3.92;;;;;;;16.23;54.20;102449.69;10259931;28;20038;-74
2023/05/24 16:34:16;;;;;;;12.18;4.10;;;;;;;16.12;55.23;102442.03;10292998;28;20039;-74
2023/05/24 16:39:16;;;;;;;6.13;2.67;;;;;;;16.09;53.73;102431.50;10292886;28;20039;-74
2023/05/24 16:44:17;;;;;;;5.93;3.70;;;;;;;16.11;55.71;102426.66;10276487;28;20031;-74
2023/05/24 16:49:17;;;;;;;8.65;3.65;;;;;;;16.32;55.35;102431.25;10275595;28;20035;-74
2023/05/24 16:54:18;;;;;;;8.65;3.00;;;;;;;16.50;55.60;102435.19;10293223;28;20470;-74
2023/05/24 16:59:18;;;;;;;7.35;3.97;;;;;;;16.56;56.70;102436.28;10293001;28;20407;-74
2023/05/24 17:04:19;;;;;;;9.63;2.95;;;;;;;16.56;59.30;102432.69;10292727;28;20034;-74
2023/05/24 17:09:20;;;;;;;3.92;3.28;;;;;;;16.74;56.20;102433.84;10292707;28;20046;-76
2023/05/24 17:14:20;;;;;;;7.20;2.95;;;;;;;16.70;55.80;102435.31;10293547;28;20058;-77
2023/05/24 17:19:24;;;;;;;4.35;3.90;;;;;;;16.58;55.76;102425.97;10291853;28;20038;-77
2023/05/24 17:24:26;;;;;;;6.38;4.15;;;;;;;16.31;56.63;102433.16;10278708;28;20042;-77
2023/05/24 17:29:28;;;;;;;11.25;4.68;;;;;;;16.11;57.40;102437.59;10299879;28;20038;-74
2023/05/24 17:34:29;;;;;;;12.73;4.05;;;;;;;15.88;60.86;102437.81;10281502;28;20572;-74
2023/05/24 17:39:29;;;;;;;11.65;3.50;;;;;;;15.81;60.48;102432.28;10266170;28;20050;-74
2023/05/24 17:44:30;;;;;;;23.30;4.50;;;;;;;15.81;61.29;102440.47;10281787;28;20046;-74
2023/05/24 17:49:31;;;;;;;12.93;3.65;;;;;;;15.84;59.23;102436.50;10297818;28;20054;-74
2023/05/24 17:54:31;;;;;;;12.75;2.92;;;;;;;15.81;58.52;102440.47;10280132;28;20054;-74
2023/05/24 17:59:32;;;;;;;11.43;4.30;;;;;;;15.55;61.68;102450.03;10299265;28;20043;-74
2023/05/24 18:04:34;;;;;;;15.95;4.38;;;;;;;15.46;61.48;102451.19;10281339;28;20046;-74
2023/05/24 18:09:34;;;;;;;9.13;4.93;;;;;;;15.39;62.64;102436.63;10298390;28;20061;-74
2023/05/24 18:14:35;;;;;;;6.60;3.53;;;;;;;15.34;61.96;102441.78;10295417;28;20054;-74
2023/05/24 18:19:35;;;;;;;14.50;3.65;;;;;;;15.22;65.61;102454.22;10282296;28;20054;-74
2023/05/24 18:24:36;;;;;;;8.32;3.65;;;;;;;15.14;65.58;102448.91;10298426;28;20039;-75
2023/05/24 18:29:38;;;;;;;7.47;3.67;;;;;;;15.10;64.99;102446.53;10279709;28;20136;-74
2023/05/24 18:34:39;;;;;;;4.95;2.88;;;;;;;15.16;65.22;102455.03;10299776;28;20042;-74
2023/05/24 18:39:40;;;;;;;5.80;2.72;;;;;;;15.20;66.61;102448.13;10295632;28;20031;-74
2023/05/24 18:44:40;;;;;;;9.02;4.22;;;;;;;15.15;67.48;102458.75;10279053;28;20034;-74
2023/05/24 18:49:41;;;;;;;13.10;3.60;;;;;;;15.08;66.24;102464.13;10297055;28;20034;-74
2023/05/24 18:54:44;;;;;;;8.75;4.72;;;;;;;14.95;65.72;102462.06;10296217;28;20553;-74
2023/05/24 18:59:46;;;;;;;11.77;3.17;;;;;;;14.75;68.47;102469.97;10278949;28;20062;-74
2023/05/24 19:04:47;;;;;;;6.85;3.53;;;;;;;14.63;67.85;102466.00;10278148;28;20061;-74
2023/05/24 19:09:47;;;;;;;15.25;4.40;;;;;;;14.52;68.26;102475.50;10295733;28;20062;-74
2023/05/24 19:14:48;;;;;;;13.35;4.03;;;;;;;14.40;67.82;102471.50;10278283;28;20039;-74
2023/05/24 19:19:49;;;;;;;9.63;4.10;;;;;;;14.26;69.75;102469.56;10295496;28;20053;-73
2023/05/24 19:24:50;;;;;;;4.85;2.95;;;;;;;14.18;66.63;102476.78;10294008;28;20236;-74
2023/05/24 19:29:51;;;;;;;12.88;4.10;;;;;;;14.03;67.79;102477.75;10279959;28;20115;-75
2023/05/24 19:34:51;;;;;;;11.63;4.25;;;;;;;13.88;68.56;102485.84;10281983;28;20098;-74
2023/05/24 19:39:52;;;;;;;7.55;4.25;;;;;;;13.68;68.35;102490.91;10299844;28;20106;-74
2023/05/24 19:44:53;;;;;;;3.28;2.97;;;;;;;13.48;70.38;102485.91;10279874;28;20050;-74
2023/05/24 19:49:54;;;;;;;6.88;3.17;;;;;;;13.38;68.13;102498.91;10277017;28;20034;-73
2023/05/24 19:54:55;;;;;;;19.20;4.28;;;;;;;13.22;69.18;102494.34;10277088;28;20066;-74
2023/05/24 19:59:56;;;;;;;14.23;4.18;;;;;;;13.03;72.23;102497.47;10276874;28;20035;-74
2023/05/24 20:04:57;;;;;;;10.55;3.10;;;;;;;12.91;73.32;102507.03;10293015;28;20062;-74
2023/05/24 20:09:58;;;;;;;19.83;4.05;;;;;;;12.77;74.57;102509.44;10276066;28;20051;-73
2023/05/24 20:14:58;;;;;;;8.23;3.60;;;;;;;12.66;75.69;102514.38;10276225;28;20142;-74
2023/05/24 20:19:58;;;;;;;20.17;4.50;;;;;;;12.57;73.31;102521.66;10294632;28;20038;-73
2023/05/24 20:24:59;;;;;;;13.85;4.38;;;;;;;12.41;73.10;102528.00;10275987;28;20046;-74
2023/05/24 20:29:59;;;;;;;19.80;4.93;;;;;;;12.31;74.08;102530.00;10294011;28;20050;-74
2023/05/24 20:35:01;;;;;;;11.13;3.95;;;;;;;12.22;78.89;102531.00;10275958;28;20042;-74
2023/05/24 20:40:04;;;;;;;12.65;5.05;;;;;;;12.13;79.60;102535.59;10275252;28;20046;-74
2023/05/24 20:45:05;;;;;;;12.85;4.28;;;;;;;12.06;83.60;102556.28;10293091;28;20381;-74
2023/05/24 20:50:06;;;;;;;13.10;4.85;;;;;;;11.98;87.06;102548.13;10275687;28;20377;-74
2023/05/24 20:55:07;;;;;;;5.28;3.60;;;;;;;11.96;82.73;102542.00;10293612;28;20038;-74
2023/05/24 21:00:09;;;;;;;14.35;4.63;;;;;;;11.90;80.87;102546.25;10280435;28;20038;-74
2023/05/24 21:05:09;;;;;;;8.88;4.15;;;;;;;11.80;82.89;102546.34;10299953;28;20038;-74
2023/05/24 21:10:15;;;;;;;8.88;3.55;;;;;;;11.79;84.22;102547.38;10301049;28;20055;-74
2023/05/24 21:15:15;;;;;;;6.40;3.63;;;;;;;11.73;82.38;102558.03;10316044;28;20339;-73
2023/05/24 21:20:16;;;;;;;12.98;4.00;;;;;;;11.64;81.49;102568.00;10282877;28;20285;-73
2023/05/24 21:25:16;;;;;;;6.90;3.70;;;;;;;11.62;84.54;102567.34;10300914;28;20031;-74
2023/05/24 21:30:17;;;;;;;12.23;4.13;;;;;;;11.59;84.78;102570.38;10301791;28;20137;-74
2023/05/24 21:35:17;;;;;;;5.45;4.72;;;;;;;11.57;87.30;102572.38;10313721;28;20042;-74
2023/05/24 21:40:18;;;;;;;14.20;4.65;;;;;;;11.52;85.24;102572.00;10320908;28;20356;-74
2023/05/24 21:45:18;;;;;;;8.93;3.70;;;;;;;11.47;85.79;102577.94;10287596;28;20065;-74
2023/05/24 21:50:19;;;;;;;6.55;3.58;;;;;;;11.46;86.04;102580.84;10283085;28;20441;-74
2023/05/24 21:55:19;;;;;;;21.17;4.75;;;;;;;11.44;88.16;102586.41;10299248;28;20034;-74
2023/05/24 22:00:20;;;;;;;7.65;3.47;;;;;;;11.37;86.43;102601.63;10313474;28;20488;-74
2023/05/24 22:05:20;;;;;;;8.45;3.67;;;;;;;11.31;85.09;102594.97;10281904;28;20050;-73
2023/05/24 22:10:21;;;;;;;4.55;3.58;;;;;;;11.27;84.47;102598.19;10298485;28;20399;-74
2023/05/24 22:15:21;;;;;;;7.82;3.70;;;;;;;11.23;84.67;102607.63;10281638;28;20441;-74
2023/05/24 22:20:23;;;;;;;21.13;4.47;;;;;;;11.11;83.33;102609.78;10300531;28;20027;-74
2023/05/24 22:25:23;;;;;;;13.07;4.60;;;;;;;11.07;83.54;102611.09;10282839;28;20046;-74
2023/05/24 22:30:25;;;;;;;11.48;4.43;;;;;;;10.98;82.67;102607.50;10313883;28;20462;-74
2023/05/24 22:35:25;;;;;;;8.95;3.90;;;;;;;10.93;82.82;102609.81;10300049;28;20043;-74
2023/05/24 22:40:26;;;;;;;6.78;3.53;;;;;;;10.97;83.33;102618.47;10281286;28;20035;-74
2023/05/24 22:45:26;;;;;;;10.90;4.22;;;;;;;10.99;82.69;102619.19;10298110;28;20050;-74
2023/05/24 22:50:26;;;;;;;5.88;3.53;;;;;;;10.99;84.28;102611.91;10297084;28;20046;-74
2023/05/24 22:55:27;;;;;;;15.90;4.70;;;;;;;11.05;84.35;102607.72;10295666;28;20035;-73
2023/05/24 23:00:27;;;;;;;13.52;5.10;;;;;;;11.06;84.86;102601.25;10296209;28;20459;-74